createdAt,value
2018-03-24T00:01:01.777Z,99.99
2018-03-24T00:02:11.494Z,99.99
2018-03-24T00:03:20.669Z,99.99
2018-03-24T00:04:30.641Z,99.99
2018-03-24T00:05:40.599Z,99.99
2018-03-24T00:06:50.558Z,99.99
2018-03-24T00:08:00.532Z,99.99
2018-03-24T00:09:10.497Z,99.99
2018-03-24T00:10:20.453Z,99.99
2018-03-24T00:11:30.418Z,99.99
2018-03-24T00:12:40.463Z,99.99
2018-03-24T00:13:50.182Z,99.99
2018-03-24T00:15:00.145Z,99.99
2018-03-24T00:16:09.849Z,99.99
2018-03-24T00:17:19.550Z,99.99
2018-03-24T00:18:29.524Z,99.99
2018-03-24T00:19:39.221Z,99.99
2018-03-24T00:20:48.942Z,99.99
2018-03-24T00:21:58.663Z,99.99
2018-03-24T00:23:08.666Z,99.99
2018-03-24T00:24:18.109Z,99.99
2018-03-24T00:25:27.298Z,99.99
2018-03-24T00:26:36.746Z,99.99
2018-03-24T00:27:46.449Z,99.99
2018-03-24T00:28:55.912Z,99.99
2018-03-24T00:30:05.613Z,99.99
2018-03-24T00:31:15.323Z,99.99
2018-03-24T00:32:25.274Z,99.99
2018-03-24T00:33:34.721Z,99.99
2018-03-24T00:34:44.417Z,99.99
2018-03-24T00:35:53.869Z,99.99
2018-03-24T00:37:03.826Z,99.99
2018-03-24T00:38:13.530Z,99.99
2018-03-24T00:39:23.488Z,99.99
2018-03-24T00:40:32.940Z,99.99
2018-03-24T00:41:42.648Z,99.99
2018-03-24T00:42:52.353Z,99.99
2018-03-24T00:44:02.042Z,99.99
2018-03-24T00:45:11.484Z,99.99
2018-03-24T00:46:20.935Z,99.99
2018-03-24T00:47:30.649Z,99.99
2018-03-24T00:48:40.348Z,99.99
2018-03-24T00:49:49.800Z,99.99
2018-03-24T00:50:59.219Z,99.99
2018-03-24T00:52:08.926Z,99.99
2018-03-24T00:53:18.892Z,99.99
2018-03-24T00:54:28.076Z,99.99
2018-03-24T00:55:37.571Z,99.99
2018-03-24T00:56:47.266Z,99.99
2018-03-24T00:57:57.239Z,99.99
2018-03-24T00:59:06.419Z,99.99
2018-03-24T01:00:16.126Z,99.99
2018-03-24T01:01:25.562Z,99.99
2018-03-24T01:02:35.526Z,99.99
2018-03-24T01:03:45.219Z,99.99
2018-03-24T01:04:54.913Z,99.99
2018-03-24T01:06:04.876Z,99.99
2018-03-24T01:07:14.842Z,99.99
2018-03-24T01:08:24.546Z,99.99
2018-03-24T01:09:34.506Z,99.99
2018-03-24T01:10:44.216Z,99.99
2018-03-24T01:11:54.195Z,99.99
2018-03-24T01:13:03.895Z,99.99
2018-03-24T01:14:13.851Z,99.99
2018-03-24T01:15:23.819Z,99.99
2018-03-24T01:16:33.264Z,99.99
2018-03-24T01:17:43.228Z,99.99
2018-03-24T01:18:52.675Z,99.99
2018-03-24T01:20:02.386Z,99.99
2018-03-24T01:21:12.094Z,99.99
2018-03-24T01:22:22.053Z,99.99
2018-03-24T01:23:31.761Z,99.99
2018-03-24T01:24:41.740Z,99.99
2018-03-24T01:25:51.706Z,99.99
2018-03-24T01:27:01.666Z,99.99
2018-03-24T01:28:11.675Z,99.99
2018-03-24T01:29:21.374Z,99.99
2018-03-24T01:30:31.338Z,99.99
2018-03-24T01:31:40.780Z,99.99
2018-03-24T01:32:50.748Z,99.99
2018-03-24T01:34:00.448Z,99.99
2018-03-24T01:35:10.416Z,99.99
2018-03-24T01:36:20.400Z,99.99
2018-03-24T01:37:30.374Z,99.99
2018-03-24T01:38:39.805Z,99.99
2018-03-24T01:39:49.761Z,99.99
2018-03-24T01:40:59.197Z,99.99
2018-03-24T01:42:09.171Z,99.99
2018-03-24T01:43:18.874Z,99.99
2018-03-24T01:44:28.568Z,99.99
2018-03-24T01:45:38.520Z,99.99
2018-03-24T01:46:48.214Z,99.99
2018-03-24T01:47:58.172Z,99.99
2018-03-24T01:49:07.620Z,99.99
2018-03-24T01:50:17.339Z,99.99
2018-03-24T01:51:26.794Z,99.99
2018-03-24T01:52:36.506Z,99.99
2018-03-24T01:53:46.209Z,99.99
2018-03-24T01:54:56.177Z,99.99
2018-03-24T01:56:05.884Z,99.99
2018-03-24T01:57:15.056Z,99.99
2018-03-24T01:58:24.501Z,99.99
2018-03-24T01:59:34.476Z,99.99
2018-03-24T02:00:44.178Z,99.99
2018-03-24T02:01:54.139Z,99.99
2018-03-24T02:03:03.842Z,99.99
2018-03-24T02:04:13.533Z,99.99
2018-03-24T02:05:23.498Z,99.99
2018-03-24T02:06:33.206Z,99.99
2018-03-24T02:07:42.921Z,99.99
2018-03-24T02:08:52.879Z,99.99
2018-03-24T02:10:02.567Z,99.99
2018-03-24T02:11:12.018Z,99.99
2018-03-24T02:12:21.460Z,99.99
2018-03-24T02:13:31.423Z,99.99
2018-03-24T02:14:41.386Z,99.99
2018-03-24T02:15:51.334Z,99.99
2018-03-24T02:17:01.049Z,99.99
2018-03-24T02:18:11.014Z,99.99
2018-03-24T02:19:20.989Z,99.99
2018-03-24T02:20:30.953Z,99.99
2018-03-24T02:21:40.654Z,99.99
2018-03-24T02:22:50.598Z,99.99
2018-03-24T02:24:00.557Z,99.99
2018-03-24T02:25:10.524Z,99.99
2018-03-24T02:26:20.492Z,99.99
2018-03-24T02:27:30.195Z,99.99
2018-03-24T02:28:39.904Z,99.99
2018-03-24T02:29:49.872Z,99.99
2018-03-24T02:30:59.651Z,99.99
2018-03-24T02:32:09.640Z,99.99
2018-03-24T02:33:19.346Z,99.99
2018-03-24T02:34:29.087Z,99.99
2018-03-24T02:35:38.536Z,99.99
2018-03-24T02:36:48.513Z,99.99
2018-03-24T02:37:58.490Z,99.99
2018-03-24T02:39:08.006Z,99.99
2018-03-24T02:40:17.976Z,99.99
2018-03-24T02:41:27.944Z,99.99
2018-03-24T02:42:37.386Z,99.99
2018-03-24T02:43:46.563Z,99.99
2018-03-24T02:44:56.534Z,99.99
2018-03-24T02:46:06.512Z,99.99
2018-03-24T02:47:16.476Z,99.99
2018-03-24T02:48:26.442Z,99.99
2018-03-24T02:49:36.498Z,99.99
2018-03-24T02:50:46.491Z,99.99
2018-03-24T02:51:56.480Z,99.99
2018-03-24T02:53:05.657Z,99.99
2018-03-24T02:54:15.387Z,99.99
2018-03-24T02:55:24.577Z,99.99
2018-03-24T02:56:34.052Z,99.99
2018-03-24T02:57:44.031Z,99.99
2018-03-24T02:58:54.011Z,99.99
2018-03-24T03:00:03.456Z,99.99
2018-03-24T03:01:13.439Z,99.99
2018-03-24T03:02:23.423Z,99.99
2018-03-24T03:03:33.157Z,99.99
2018-03-24T03:04:43.128Z,99.99
2018-03-24T03:05:53.111Z,99.99
2018-03-24T03:07:03.100Z,99.99
2018-03-24T03:08:12.813Z,99.99
2018-03-24T03:09:22.264Z,99.99
2018-03-24T03:10:31.980Z,99.99
2018-03-24T03:11:41.937Z,99.99
2018-03-24T03:12:51.885Z,99.99
2018-03-24T03:14:01.852Z,99.99
2018-03-24T03:15:11.812Z,99.99
2018-03-24T03:16:21.764Z,99.99
2018-03-24T03:17:31.728Z,99.99
2018-03-24T03:18:41.708Z,99.99
2018-03-24T03:19:51.416Z,99.99
2018-03-24T03:21:01.605Z,99.99
2018-03-24T03:22:11.303Z,99.99
2018-03-24T03:23:21.003Z,99.99
2018-03-24T03:24:30.975Z,99.99
2018-03-24T03:25:40.960Z,99.99
2018-03-24T03:26:50.661Z,99.99
2018-03-24T03:28:00.782Z,99.99
2018-03-24T03:29:10.558Z,99.99
2018-03-24T03:30:20.009Z,99.99
2018-03-24T03:31:30.208Z,99.99
2018-03-24T03:32:40.181Z,99.99
2018-03-24T03:33:49.870Z,99.99
2018-03-24T03:34:59.308Z,99.99
2018-03-24T03:36:08.498Z,99.99
2018-03-24T03:37:18.463Z,99.99
2018-03-24T03:38:27.896Z,99.99
2018-03-24T03:39:37.667Z,99.99
2018-03-24T03:40:47.551Z,99.99
2018-03-24T03:41:57.257Z,99.99
2018-03-24T03:43:07.014Z,99.99
2018-03-24T03:44:16.984Z,99.99
2018-03-24T03:45:26.673Z,99.99
2018-03-24T03:46:36.375Z,99.99
2018-03-24T03:47:45.581Z,99.99
2018-03-24T03:48:55.546Z,99.99
2018-03-24T03:50:05.267Z,99.99
2018-03-24T03:51:14.962Z,99.99
2018-03-24T03:52:24.924Z,99.99
2018-03-24T03:53:34.880Z,99.99
2018-03-24T03:54:44.316Z,99.99
2018-03-24T03:55:54.274Z,99.99
2018-03-24T03:57:04.232Z,99.99
2018-03-24T03:58:13.947Z,99.99
2018-03-24T03:59:23.899Z,99.99
2018-03-24T04:00:33.853Z,99.99
2018-03-24T04:01:43.303Z,99.99
2018-03-24T04:02:52.998Z,99.99
2018-03-24T04:04:02.193Z,99.99
2018-03-24T04:05:12.163Z,99.99
2018-03-24T04:06:21.854Z,99.99
2018-03-24T04:07:31.822Z,99.99
2018-03-24T04:08:41.777Z,99.99
2018-03-24T04:09:51.467Z,99.99
2018-03-24T04:11:01.490Z,99.99
2018-03-24T04:12:11.670Z,99.99
2018-03-24T04:13:21.357Z,99.99
2018-03-24T04:14:30.801Z,99.99
2018-03-24T04:15:40.512Z,99.99
2018-03-24T04:16:50.201Z,99.99
2018-03-24T04:18:00.167Z,99.99
2018-03-24T04:19:09.868Z,99.99
2018-03-24T04:20:19.836Z,99.99
2018-03-24T04:21:29.824Z,99.99
2018-03-24T04:22:39.774Z,99.99
2018-03-24T04:23:49.461Z,99.99
2018-03-24T04:24:59.163Z,99.99
2018-03-24T04:26:08.868Z,99.99
2018-03-24T04:27:18.825Z,99.99
2018-03-24T04:28:28.800Z,99.99
2018-03-24T04:29:38.503Z,99.99
2018-03-24T04:30:48.211Z,99.99
2018-03-24T04:31:57.650Z,99.99
2018-03-24T04:33:07.106Z,99.99
2018-03-24T04:34:16.802Z,99.99
2018-03-24T04:35:26.248Z,99.99
2018-03-24T04:36:36.213Z,99.99
2018-03-24T04:37:46.174Z,99.99
2018-03-24T04:38:55.878Z,99.99
2018-03-24T04:40:05.838Z,99.99
2018-03-24T04:41:15.797Z,99.99
2018-03-24T04:42:25.775Z,99.99
2018-03-24T04:43:35.737Z,99.99
2018-03-24T04:44:45.453Z,99.99
2018-03-24T04:45:55.459Z,99.99
2018-03-24T04:47:05.149Z,99.99
2018-03-24T04:48:14.584Z,99.99
2018-03-24T04:49:24.547Z,99.99
2018-03-24T04:50:34.502Z,99.99
2018-03-24T04:51:44.467Z,99.99
2018-03-24T04:52:54.429Z,99.99
2018-03-24T04:54:04.401Z,99.99
2018-03-24T04:55:14.353Z,99.99
2018-03-24T04:56:24.323Z,99.99
2018-03-24T04:57:34.303Z,99.99
2018-03-24T04:58:44.265Z,99.99
2018-03-24T04:59:54.245Z,99.99
2018-03-24T05:01:04.203Z,99.99
2018-03-24T05:02:13.912Z,99.99
2018-03-24T05:03:23.624Z,99.99
2018-03-24T05:04:33.580Z,99.99
2018-03-24T05:05:43.548Z,99.99
2018-03-24T05:06:53.251Z,99.99
2018-03-24T05:08:03.229Z,99.99
2018-03-24T05:09:12.929Z,99.99
2018-03-24T05:10:22.908Z,99.99
2018-03-24T05:11:32.622Z,99.99
2018-03-24T05:12:42.571Z,99.99
2018-03-24T05:13:52.005Z,99.99
2018-03-24T05:15:01.965Z,99.99
2018-03-24T05:16:11.924Z,99.99
2018-03-24T05:17:21.907Z,99.99
2018-03-24T05:18:31.611Z,99.99
2018-03-24T05:19:41.592Z,99.99
2018-03-24T05:20:51.549Z,99.99
2018-03-24T05:22:01.503Z,99.99
2018-03-24T05:23:11.461Z,99.99
2018-03-24T05:24:21.418Z,99.99
2018-03-24T05:25:31.375Z,99.99
2018-03-24T05:26:41.074Z,99.99
2018-03-24T05:27:50.527Z,99.99
2018-03-24T05:29:00.492Z,99.99
2018-03-24T05:30:10.192Z,99.99
2018-03-24T05:31:19.892Z,99.99
2018-03-24T05:32:29.859Z,99.99
2018-03-24T05:33:39.823Z,99.99
2018-03-24T05:34:49.792Z,99.99
2018-03-24T05:35:59.752Z,99.99
2018-03-24T05:37:09.711Z,99.99
2018-03-24T05:38:19.404Z,99.99
2018-03-24T05:39:29.366Z,99.99
2018-03-24T05:40:39.329Z,99.99
2018-03-24T05:41:49.041Z,99.99
2018-03-24T05:42:58.995Z,99.99
2018-03-24T05:44:08.954Z,99.99
2018-03-24T05:45:18.916Z,99.99
2018-03-24T05:46:28.360Z,99.99
2018-03-24T05:47:38.324Z,99.99
2018-03-24T05:48:48.658Z,99.99
2018-03-24T05:49:58.374Z,99.99
2018-03-24T05:51:08.349Z,99.99
2018-03-24T05:52:18.046Z,99.99
2018-03-24T05:53:28.007Z,99.99
2018-03-24T05:54:37.964Z,99.99
2018-03-24T05:55:47.925Z,99.99
2018-03-24T05:56:57.915Z,99.99
2018-03-24T05:58:07.627Z,99.99
2018-03-24T05:59:17.597Z,99.99
2018-03-24T06:00:27.300Z,99.99
2018-03-24T06:01:37.257Z,99.99
2018-03-24T06:02:46.955Z,99.99
2018-03-24T06:03:56.987Z,99.99
2018-03-24T06:05:06.461Z,99.99
2018-03-24T06:06:16.448Z,99.99
2018-03-24T06:07:26.408Z,99.99
2018-03-24T06:08:36.403Z,99.99
2018-03-24T06:09:46.100Z,99.99
2018-03-24T06:10:56.070Z,99.99
2018-03-24T06:12:05.773Z,99.99
2018-03-24T06:13:15.753Z,99.99
2018-03-24T06:14:25.733Z,99.99
2018-03-24T06:15:35.693Z,99.99
2018-03-24T06:16:45.391Z,99.99
2018-03-24T06:17:54.829Z,99.99
2018-03-24T06:19:04.792Z,99.99
2018-03-24T06:20:14.746Z,99.99
2018-03-24T06:21:24.185Z,99.99
2018-03-24T06:22:34.171Z,99.99
2018-03-24T06:23:44.149Z,99.99
2018-03-24T06:24:54.111Z,99.99
2018-03-24T06:26:04.077Z,99.99
2018-03-24T06:27:13.784Z,99.99
2018-03-24T06:28:23.772Z,99.99
2018-03-24T06:29:33.490Z,99.99
2018-03-24T06:30:43.187Z,99.99
2018-03-24T06:31:53.154Z,99.99
2018-03-24T06:33:02.859Z,99.99
2018-03-24T06:34:12.821Z,99.99
2018-03-24T06:35:22.814Z,99.99
2018-03-24T06:36:32.542Z,99.99
2018-03-24T06:37:42.267Z,99.99
2018-03-24T06:38:52.242Z,99.99
2018-03-24T06:40:02.223Z,99.99
2018-03-24T06:41:11.930Z,99.99
2018-03-24T06:42:21.366Z,99.99
2018-03-24T06:43:31.373Z,99.99
2018-03-24T06:44:41.392Z,99.99
2018-03-24T06:45:51.232Z,99.99
2018-03-24T06:47:00.936Z,99.99
2018-03-24T06:48:10.641Z,99.99
2018-03-24T06:49:20.101Z,99.99
2018-03-24T06:50:30.061Z,99.99
2018-03-24T06:51:40.029Z,99.99
2018-03-24T06:52:50.008Z,99.99
2018-03-24T06:53:59.983Z,99.99
2018-03-24T06:55:09.750Z,99.99
2018-03-24T06:56:19.783Z,99.99
2018-03-24T06:57:29.512Z,99.99
2018-03-24T06:58:39.486Z,99.99
2018-03-24T06:59:49.195Z,99.99
2018-03-24T07:00:59.150Z,99.99
2018-03-24T07:02:08.862Z,99.99
2018-03-24T07:03:18.818Z,99.99
2018-03-24T07:04:28.799Z,99.99
2018-03-24T07:05:38.784Z,99.99
2018-03-24T07:06:48.496Z,99.99
2018-03-24T07:07:58.709Z,99.99
2018-03-24T07:09:08.181Z,99.99
2018-03-24T07:10:18.157Z,99.99
2018-03-24T07:11:27.855Z,99.99
2018-03-24T07:12:37.289Z,99.99
2018-03-24T07:13:47.247Z,99.99
2018-03-24T07:14:56.969Z,99.99
2018-03-24T07:16:06.683Z,99.99
2018-03-24T07:17:16.668Z,99.99
2018-03-24T07:18:26.745Z,99.99
2018-03-24T07:19:36.726Z,99.99
2018-03-24T07:20:46.708Z,99.99
2018-03-24T07:21:56.667Z,99.99
2018-03-24T07:23:06.636Z,99.99
2018-03-24T07:24:16.337Z,99.99
2018-03-24T07:25:26.303Z,99.99
2018-03-24T07:26:36.033Z,99.99
2018-03-24T07:27:45.999Z,99.99
2018-03-24T07:28:55.961Z,99.99
2018-03-24T07:30:05.762Z,99.99
2018-03-24T07:31:15.740Z,99.99
2018-03-24T07:32:25.701Z,99.99
2018-03-24T07:33:35.412Z,99.99
2018-03-24T07:34:45.114Z,99.99
2018-03-24T07:35:54.827Z,99.99
2018-03-24T07:37:04.791Z,99.99
2018-03-24T07:38:14.750Z,99.99
2018-03-24T07:39:24.723Z,99.99
2018-03-24T07:40:34.702Z,99.99
2018-03-24T07:41:44.424Z,99.99
2018-03-24T07:42:54.400Z,99.99
2018-03-24T07:44:04.369Z,99.99
2018-03-24T07:45:14.339Z,99.99
2018-03-24T07:46:24.043Z,99.99
2018-03-24T07:47:33.808Z,99.99
2018-03-24T07:48:43.929Z,99.99
2018-03-24T07:49:53.637Z,99.99
2018-03-24T07:51:03.356Z,99.99
2018-03-24T07:52:13.320Z,99.99
2018-03-24T07:53:23.298Z,99.99
2018-03-24T07:54:33.263Z,99.99
2018-03-24T07:55:42.986Z,99.99
2018-03-24T07:56:52.997Z,99.99
2018-03-24T07:58:02.701Z,99.99
2018-03-24T07:59:12.677Z,99.99
2018-03-24T08:00:22.388Z,99.99
2018-03-24T08:01:32.359Z,99.99
2018-03-24T08:02:42.068Z,99.99
2018-03-24T08:03:52.025Z,99.99
2018-03-24T08:05:02.014Z,99.99
2018-03-24T08:06:11.727Z,99.99
2018-03-24T08:07:21.693Z,99.99
2018-03-24T08:08:31.413Z,99.99
2018-03-24T08:09:41.280Z,99.99
2018-03-24T08:10:51.269Z,99.99
2018-03-24T08:12:01.240Z,99.99
2018-03-24T08:13:11.202Z,99.99
2018-03-24T08:14:21.184Z,99.99
2018-03-24T08:15:30.891Z,99.99
2018-03-24T08:16:40.599Z,99.99
2018-03-24T08:17:50.322Z,99.99
2018-03-24T08:18:59.759Z,99.99
2018-03-24T08:20:09.464Z,99.99
2018-03-24T08:21:19.174Z,99.99
2018-03-24T08:22:29.181Z,99.99
2018-03-24T08:23:38.380Z,99.99
2018-03-24T08:24:48.088Z,99.99
2018-03-24T08:25:58.065Z,99.99
2018-03-24T08:27:07.776Z,99.99
2018-03-24T08:28:17.769Z,99.99
2018-03-24T08:29:27.478Z,99.99
2018-03-24T08:30:36.939Z,99.99
2018-03-24T08:31:46.675Z,99.99
2018-03-24T08:32:56.642Z,99.99
2018-03-24T08:34:06.360Z,99.99
2018-03-24T08:35:15.549Z,99.99
2018-03-24T08:36:25.539Z,99.99
2018-03-24T08:37:35.242Z,99.99
2018-03-24T08:38:45.208Z,99.99
2018-03-24T08:39:54.649Z,99.99
2018-03-24T08:41:04.385Z,99.99
2018-03-24T08:42:13.826Z,99.99
2018-03-24T08:43:23.802Z,99.99
2018-03-24T08:44:33.509Z,99.99
2018-03-24T08:45:42.739Z,99.99
2018-03-24T08:46:52.463Z,99.99
2018-03-24T08:48:01.893Z,99.99
2018-03-24T08:49:11.876Z,99.99
2018-03-24T08:50:21.592Z,99.99
2018-03-24T08:51:31.028Z,99.99
2018-03-24T08:52:40.211Z,99.99
2018-03-24T08:53:49.652Z,99.99
2018-03-24T08:54:59.122Z,99.99
2018-03-24T08:56:09.094Z,99.99
2018-03-24T08:57:18.539Z,99.99
2018-03-24T08:58:28.503Z,99.99
2018-03-24T08:59:38.471Z,99.99
2018-03-24T09:00:48.431Z,99.99
2018-03-24T09:01:58.125Z,99.99
2018-03-24T09:03:07.846Z,99.99
2018-03-24T09:04:17.599Z,99.99
2018-03-24T09:05:27.326Z,99.99
2018-03-24T09:06:37.305Z,99.99
2018-03-24T09:07:46.759Z,99.99
2018-03-24T09:08:56.725Z,99.99
2018-03-24T09:10:05.933Z,99.99
2018-03-24T09:11:15.630Z,99.99
2018-03-24T09:12:25.354Z,99.99
2018-03-24T09:13:35.053Z,99.99
2018-03-24T09:14:44.493Z,99.99
2018-03-24T09:15:54.459Z,99.99
2018-03-24T09:17:04.416Z,99.99
2018-03-24T09:18:14.125Z,99.99
2018-03-24T09:19:24.089Z,99.99
2018-03-24T09:20:34.052Z,99.99
2018-03-24T09:21:43.777Z,99.99
2018-03-24T09:22:52.973Z,99.99
2018-03-24T09:24:02.414Z,99.99
2018-03-24T09:25:12.113Z,99.99
2018-03-24T09:26:22.079Z,99.99
2018-03-24T09:27:31.529Z,99.99
2018-03-24T09:28:41.229Z,99.99
2018-03-24T09:29:51.201Z,99.99
2018-03-24T09:31:01.171Z,99.99
2018-03-24T09:32:11.150Z,99.99
2018-03-24T09:33:20.859Z,99.99
2018-03-24T09:34:30.833Z,99.99
2018-03-24T09:35:40.297Z,99.99
2018-03-24T09:36:50.263Z,99.99
2018-03-24T09:37:59.456Z,99.99
2018-03-24T09:39:09.180Z,99.99
2018-03-24T09:40:19.140Z,99.99
2018-03-24T09:41:28.851Z,99.99
2018-03-24T09:42:38.305Z,99.99
2018-03-24T09:43:48.338Z,99.99
2018-03-24T09:44:58.047Z,99.99
2018-03-24T09:46:08.021Z,99.99
2018-03-24T09:47:17.472Z,99.99
2018-03-24T09:48:27.207Z,99.99
2018-03-24T09:49:36.662Z,99.99
2018-03-24T09:50:46.378Z,99.99
2018-03-24T09:51:56.102Z,99.39
2018-03-24T09:53:06.058Z,99.99
2018-03-24T09:54:15.507Z,99.99
2018-03-24T09:55:24.949Z,99.91
2018-03-24T09:56:34.907Z,99.44
2018-03-24T09:57:44.886Z,98.49
2018-03-24T09:58:54.601Z,98.21
2018-03-24T10:00:04.046Z,99.82
2018-03-24T10:01:13.506Z,98.4
2018-03-24T10:02:23.205Z,97.17
2018-03-24T10:03:32.922Z,97.17
2018-03-24T10:04:42.907Z,96.78
2018-03-24T10:05:52.618Z,97.17
2018-03-24T10:07:02.616Z,96.97
2018-03-24T10:08:12.341Z,96.78
2018-03-24T10:09:22.317Z,96.12
2018-03-24T10:10:32.294Z,97.07
2018-03-24T10:11:42.018Z,96.97
2018-03-24T10:12:51.471Z,95.55
2018-03-24T10:14:01.190Z,97.36
2018-03-24T10:15:10.906Z,97.26
2018-03-24T10:16:20.613Z,97.64
2018-03-24T10:17:30.316Z,96.36
2018-03-24T10:18:39.788Z,94.84
2018-03-24T10:19:49.769Z,94.46
2018-03-24T10:20:59.476Z,95.12
2018-03-24T10:22:09.304Z,93.8
2018-03-24T10:23:19.273Z,94.74
2018-03-24T10:24:28.727Z,94.03
2018-03-24T10:25:38.175Z,93.46
2018-03-24T10:26:47.622Z,94.08
2018-03-24T10:27:57.611Z,93.89
2018-03-24T10:29:07.834Z,92.8
2018-03-24T10:30:17.549Z,92.23
2018-03-24T10:31:27.279Z,91.38
2018-03-24T10:32:36.991Z,91.28
2018-03-24T10:33:46.447Z,90.42
2018-03-24T10:34:56.423Z,90.14
2018-03-24T10:36:06.140Z,88.53
2018-03-24T10:37:16.114Z,89.04
2018-03-24T10:38:26.091Z,90.8
2018-03-24T10:39:35.795Z,89.09
2018-03-24T10:40:45.520Z,89.19
2018-03-24T10:41:55.499Z,88.76
2018-03-24T10:43:05.488Z,89
2018-03-24T10:44:14.948Z,87.76
2018-03-24T10:45:24.668Z,88.71
2018-03-24T10:46:34.406Z,87.86
2018-03-24T10:47:44.389Z,88.57
2018-03-24T10:48:54.362Z,87.34
2018-03-24T10:50:04.343Z,88.24
2018-03-24T10:51:13.788Z,88.9
2018-03-24T10:52:23.543Z,87.14
2018-03-24T10:53:33.029Z,86.82
2018-03-24T10:54:42.767Z,86.47
2018-03-24T10:55:52.724Z,85.81
2018-03-24T10:57:02.185Z,86.29
2018-03-24T10:58:11.898Z,86.24
2018-03-24T10:59:21.902Z,85.11
2018-03-24T11:00:31.886Z,84.63
2018-03-24T11:01:41.626Z,85.39
2018-03-24T11:02:51.339Z,83.49
2018-03-24T11:04:00.803Z,82.82
2018-03-24T11:05:10.601Z,82.35
2018-03-24T11:06:20.572Z,83.78
2018-03-24T11:07:29.764Z,84.34
2018-03-24T11:08:39.738Z,84.25
2018-03-24T11:09:49.702Z,85.53
2018-03-24T11:10:59.680Z,85.25
2018-03-24T11:12:09.144Z,84.91
2018-03-24T11:13:18.856Z,85.39
2018-03-24T11:14:28.587Z,85.96
2018-03-24T11:15:38.323Z,85.39
2018-03-24T11:16:48.045Z,85.58
2018-03-24T11:17:58.038Z,84.25
2018-03-24T11:19:07.759Z,85.2
2018-03-24T11:20:17.484Z,84.63
2018-03-24T11:21:26.930Z,85.49
2018-03-24T11:22:36.897Z,85.3
2018-03-24T11:23:46.639Z,85.86
2018-03-24T11:24:56.356Z,87.38
2018-03-24T11:26:06.072Z,85.77
2018-03-24T11:27:15.836Z,85.86
2018-03-24T11:28:25.544Z,85.49
2018-03-24T11:29:34.994Z,85.39
2018-03-24T11:30:44.994Z,84.53
2018-03-24T11:31:54.439Z,85.39
2018-03-24T11:33:04.281Z,85.58
2018-03-24T11:34:14.331Z,85.86
2018-03-24T11:35:24.302Z,83.87
2018-03-24T11:36:34.000Z,83.2
2018-03-24T11:37:43.974Z,83.59
2018-03-24T11:38:53.942Z,84.82
2018-03-24T11:40:03.916Z,85.3
2018-03-24T11:41:13.615Z,85.86
2018-03-24T11:42:23.063Z,85.96
2018-03-24T11:43:32.839Z,85.39
2018-03-24T11:44:42.293Z,84.72
2018-03-24T11:45:52.269Z,83.59
2018-03-24T11:47:01.964Z,84.63
2018-03-24T11:48:11.686Z,83.01
2018-03-24T11:49:21.412Z,82.82
2018-03-24T11:50:31.393Z,83.11
2018-03-24T11:51:40.847Z,84.53
2018-03-24T11:52:50.820Z,84.63
2018-03-24T11:54:00.530Z,84.53
2018-03-24T11:55:09.718Z,85.2
2018-03-24T11:56:19.430Z,86.15
2018-03-24T11:57:28.637Z,85.2
2018-03-24T11:58:38.355Z,85.77
2018-03-24T11:59:47.808Z,84.91
2018-03-24T12:00:57.263Z,84.25
2018-03-24T12:02:06.451Z,82.82
2018-03-24T12:03:15.892Z,84.34
2018-03-24T12:04:25.632Z,82.73
2018-03-24T12:05:35.633Z,83.3
2018-03-24T12:06:45.094Z,82.68
2018-03-24T12:07:55.096Z,82.29
2018-03-24T12:09:04.812Z,82.49
2018-03-24T12:10:14.785Z,82.01
2018-03-24T12:11:24.768Z,82.1
2018-03-24T12:12:34.477Z,81.73
2018-03-24T12:13:43.936Z,80.11
2018-03-24T12:14:53.394Z,81.12
2018-03-24T12:16:03.377Z,83.11
2018-03-24T12:17:13.102Z,84.72
2018-03-24T12:18:22.816Z,85.39
2018-03-24T12:19:32.537Z,85.91
2018-03-24T12:20:42.256Z,84.44
2018-03-24T12:21:51.970Z,85.11
2018-03-24T12:23:01.415Z,84.53
2018-03-24T12:24:11.116Z,85.39
2018-03-24T12:25:21.082Z,84.72
2018-03-24T12:26:30.596Z,83.97
2018-03-24T12:27:40.311Z,83.39
2018-03-24T12:28:49.506Z,83.11
2018-03-24T12:29:58.957Z,83.39
2018-03-24T12:31:08.938Z,83.01
2018-03-24T12:32:18.919Z,82.92
2018-03-24T12:33:28.912Z,82.16
2018-03-24T12:34:38.361Z,82.49
2018-03-24T12:35:48.355Z,83.49
2018-03-24T12:36:58.338Z,83.39
2018-03-24T12:38:08.082Z,82.77
2018-03-24T12:39:17.535Z,81.63
2018-03-24T12:40:27.534Z,83.06
2018-03-24T12:41:37.508Z,82.73
2018-03-24T12:42:47.476Z,82.58
2018-03-24T12:43:57.444Z,81.44
2018-03-24T12:45:07.156Z,81.92
2018-03-24T12:46:17.140Z,82.29
2018-03-24T12:47:27.377Z,82.92
2018-03-24T12:48:37.088Z,81.06
2018-03-24T12:49:47.060Z,81.12
2018-03-24T12:50:57.037Z,82.35
2018-03-24T12:52:07.007Z,82.54
2018-03-24T12:53:16.710Z,82.16
2018-03-24T12:54:26.424Z,81.3
2018-03-24T12:55:36.152Z,83.49
2018-03-24T12:56:46.161Z,83.26
2018-03-24T12:57:56.129Z,83.11
2018-03-24T12:59:06.109Z,82.82
2018-03-24T13:00:15.840Z,83.01
2018-03-24T13:01:25.809Z,82.92
2018-03-24T13:02:35.770Z,82.82
2018-03-24T13:03:45.477Z,82.16
2018-03-24T13:04:55.449Z,82.07
2018-03-24T13:06:05.173Z,82.35
2018-03-24T13:07:14.879Z,82.39
2018-03-24T13:08:25.137Z,80.21
2018-03-24T13:09:35.121Z,78.59
2018-03-24T13:10:45.135Z,77.77
2018-03-24T13:11:55.108Z,77.49
2018-03-24T13:13:05.086Z,77.68
2018-03-24T13:14:14.793Z,77.87
2018-03-24T13:15:24.773Z,78.25
2018-03-24T13:16:34.763Z,78.72
2018-03-24T13:17:44.208Z,77.77
2018-03-24T13:18:53.670Z,78.72
2018-03-24T13:20:03.131Z,79.06
2018-03-24T13:21:12.857Z,78.72
2018-03-24T13:22:22.831Z,78.25
2018-03-24T13:23:32.295Z,76.63
2018-03-24T13:24:42.283Z,75.49
2018-03-24T13:25:52.239Z,76.44
2018-03-24T13:27:01.737Z,77.3
2018-03-24T13:28:11.448Z,77.68
2018-03-24T13:29:20.910Z,76.86
2018-03-24T13:30:30.409Z,75.53
2018-03-24T13:31:40.121Z,76.1
2018-03-24T13:32:50.095Z,75.28
2018-03-24T13:33:59.829Z,73.38
2018-03-24T13:35:09.540Z,71.86
2018-03-24T13:36:19.002Z,71.95
2018-03-24T13:37:28.986Z,72.24
2018-03-24T13:38:38.692Z,73.76
2018-03-24T13:39:48.153Z,73.85
2018-03-24T13:40:57.862Z,73.57
2018-03-24T13:42:07.882Z,71.95
2018-03-24T13:43:17.875Z,72.2
2018-03-24T13:44:27.590Z,74.73
2018-03-24T13:45:37.556Z,76.54
2018-03-24T13:46:47.538Z,77.01
2018-03-24T13:47:57.526Z,77.55
2018-03-24T13:49:07.502Z,78.59
2018-03-24T13:50:17.482Z,78.06
2018-03-24T13:51:27.459Z,78.34
2018-03-24T13:52:36.930Z,77.68
2018-03-24T13:53:46.648Z,78.44
2018-03-24T13:54:56.616Z,77.87
2018-03-24T13:56:06.320Z,77.97
2018-03-24T13:57:16.302Z,77.3
2018-03-24T13:58:26.282Z,75.81
2018-03-24T13:59:35.733Z,76.96
2018-03-24T14:00:44.921Z,76.1
2018-03-24T14:01:54.900Z,75.15
2018-03-24T14:03:04.341Z,76.29
2018-03-24T14:04:14.056Z,76.57
2018-03-24T14:05:23.766Z,77.77
2018-03-24T14:06:33.757Z,78.57
2018-03-24T14:07:43.731Z,75.91
2018-03-24T14:08:53.712Z,76.01
2018-03-24T14:10:03.717Z,75.05
2018-03-24T14:11:13.699Z,75.24
2018-03-24T14:12:23.450Z,75.72
2018-03-24T14:13:33.421Z,74.77
2018-03-24T14:14:42.900Z,75.28
2018-03-24T14:15:52.608Z,75.53
2018-03-24T14:17:02.393Z,75.91
2018-03-24T14:18:12.426Z,76.39
2018-03-24T14:19:22.145Z,76.48
2018-03-24T14:20:32.117Z,78.34
2018-03-24T14:21:41.841Z,78.91
2018-03-24T14:22:51.550Z,77.34
2018-03-24T14:24:01.524Z,76.67
2018-03-24T14:25:11.237Z,74.87
2018-03-24T14:26:20.946Z,74.71
2018-03-24T14:27:30.392Z,74.04
2018-03-24T14:28:40.125Z,72.94
2018-03-24T14:29:49.835Z,71.89
2018-03-24T14:30:59.025Z,71.7
2018-03-24T14:32:08.742Z,72.33
2018-03-24T14:33:18.463Z,74.9
2018-03-24T14:34:28.444Z,74.29
2018-03-24T14:35:38.431Z,74.87
2018-03-24T14:36:48.155Z,73.91
2018-03-24T14:37:58.221Z,73.53
2018-03-24T14:39:08.284Z,73.44
2018-03-24T14:40:17.996Z,74.29
2018-03-24T14:41:27.726Z,74.96
2018-03-24T14:42:37.710Z,75.43
2018-03-24T14:43:47.680Z,74.82
2018-03-24T14:44:57.404Z,74.87
2018-03-24T14:46:07.406Z,75.15
2018-03-24T14:47:17.388Z,74.48
2018-03-24T14:48:27.364Z,73.28
2018-03-24T14:49:37.364Z,71.42
2018-03-24T14:50:47.091Z,71.98
2018-03-24T14:51:57.065Z,71.89
2018-03-24T14:53:07.065Z,71.89
2018-03-24T14:54:16.773Z,71.7
2018-03-24T14:55:26.771Z,70.97
2018-03-24T14:56:36.494Z,70.27
2018-03-24T14:57:46.499Z,69.83
2018-03-24T14:58:56.497Z,69.93
2018-03-24T15:00:06.224Z,69.42